Time;durP1;ratioP1;P1;durP2;ratioP2;P2;SDS_P1;SDS_P2;PMS_P1;PMS_P2;Temp;Humidity;BMP_temperature;BMP_pressure;BME280_temperature;BME280_humidity;BME280_pressure;Samples;Min_cycle;Max_cycle;Signal;HPM_P1;HPM_P2
2022/01/08 00:00:22;;;;;;;3.80;3.17;;;4.00;71.50;;;;;;5054247;28;20033;-74
2022/01/08 00:02:48;;;;;;;3.80;3.03;;;4.20;71.50;;;;;;5053927;28;20072;-74
2022/01/08 00:05:14;;;;;;;2.97;2.70;;;4.00;71.40;;;;;;5055166;28;20021;-74
2022/01/08 00:07:40;;;;;;;3.60;2.95;;;3.90;71.30;;;;;;5065935;28;20481;-74
2022/01/08 00:10:10;;;;;;;3.30;2.92;;;3.90;71.30;;;;;;5052157;28;20037;-73
2022/01/08 00:12:35;;;;;;;4.03;2.75;;;3.90;71.40;;;;;;5053157;28;20033;-73
2022/01/08 00:15:01;;;;;;;3.90;2.90;;;3.90;71.50;;;;;;5051914;28;20037;-74
2022/01/08 00:17:26;;;;;;;3.67;3.15;;;3.80;71.30;;;;;;5053766;28;20062;-74
2022/01/08 00:19:52;;;;;;;3.50;2.28;;;3.80;71.40;;;;;;5050505;28;20397;-74
2022/01/08 00:22:19;;;;;;;4.22;2.72;;;3.80;71.30;;;;;;5063259;28;20068;-74
2022/01/08 00:24:45;;;;;;;3.05;2.75;;;3.80;71.30;;;;;;5053062;28;20044;-74
2022/01/08 00:27:10;;;;;;;3.50;2.67;;;3.80;71.30;;;;;;5051785;28;20021;-74
2022/01/08 00:29:36;;;;;;;3.10;2.70;;;3.80;71.20;;;;;;5052524;28;20605;-73
2022/01/08 00:32:02;;;;;;;2.85;2.58;;;3.90;71.30;;;;;;5053142;28;20084;-74
2022/01/08 00:34:28;;;;;;;4.57;2.90;;;3.80;71.10;;;;;;5051655;28;20115;-73
2022/01/08 00:36:53;;;;;;;3.92;2.75;;;3.80;71.10;;;;;;5069980;28;20079;-74
2022/01/08 00:39:19;;;;;;;6.03;2.95;;;3.80;71.10;;;;;;5052234;28;20475;-74
2022/01/08 00:41:45;;;;;;;3.08;2.45;;;4.10;71.20;;;;;;5053372;28;20025;-74
2022/01/08 00:44:10;;;;;;;4.15;2.80;;;3.80;71.00;;;;;;5051650;28;20428;-74
2022/01/08 00:46:36;;;;;;;4.25;2.80;;;3.70;70.90;;;;;;5052946;28;20017;-74
2022/01/08 00:49:03;;;;;;;4.97;2.78;;;3.70;71.00;;;;;;5053721;28;20132;-74
2022/01/08 00:51:29;;;;;;;3.35;2.75;;;3.70;71.00;;;;;;5054685;28;20025;-73
2022/01/08 00:53:54;;;;;;;3.78;2.72;;;3.70;71.00;;;;;;5052490;28;20546;-73
2022/01/08 00:56:20;;;;;;;2.85;2.55;;;3.70;71.10;;;;;;5050783;28;20028;-73
2022/01/08 00:58:46;;;;;;;3.22;2.40;;;3.60;71.70;;;;;;5030893;28;20036;-74
2022/01/08 01:01:12;;;;;;;3.38;2.50;;;3.60;71.00;;;;;;5052648;28;20075;-74
2022/01/08 01:03:37;;;;;;;4.15;2.58;;;3.60;71.10;;;;;;5053425;28;20071;-73
2022/01/08 01:06:06;;;;;;;3.50;2.50;;;3.50;71.20;;;;;;5057835;28;20035;-74
2022/01/08 01:08:32;;;;;;;3.05;2.60;;;3.50;71.30;;;;;;5051916;28;20036;-73
2022/01/08 01:10:58;;;;;;;3.55;2.55;;;3.50;71.40;;;;;;5052599;28;20631;-73
2022/01/08 01:13:23;;;;;;;3.60;2.53;;;3.50;71.50;;;;;;5050948;28;20033;-74
2022/01/08 01:15:50;;;;;;;4.35;2.58;;;3.60;71.60;;;;;;5051628;28;20024;-74
2022/01/08 01:18:16;;;;;;;3.20;2.65;;;3.50;71.50;;;;;;5054237;28;20044;-74
2022/01/08 01:20:41;;;;;;;2.60;2.40;;;3.50;71.50;;;;;;5052760;28;20469;-73
2022/01/08 01:23:13;;;;;;;4.93;2.50;;;3.60;71.60;;;;;;5051071;28;20454;-73
2022/01/08 01:25:48;;;;;;;4.43;2.63;;;3.60;71.60;;;;;;5051097;28;20033;-74
2022/01/08 01:28:30;;;;;;;6.30;2.95;;;3.60;71.50;;;;;;5051626;28;20037;-73
2022/01/08 01:47:19;;;;;;;3.08;2.55;;;3.70;71.10;;;;;;5061788;28;20043;-73
2022/01/08 01:49:47;;;;;;;5.88;3.15;;;3.50;71.10;;;;;;5059906;28;20052;-73
2022/01/08 01:52:15;;;;;;;3.42;2.95;;;3.50;71.10;;;;;;5067877;28;20025;-73
2022/01/08 01:54:41;;;;;;;5.15;3.47;;;3.60;71.30;;;;;;5054113;28;20032;-73
2022/01/08 01:57:09;;;;;;;3.85;2.75;;;3.50;71.30;;;;;;5039698;28;20528;-73
2022/01/08 01:59:36;;;;;;;5.63;3.08;;;3.50;71.30;;;;;;5054830;28;20029;-73
2022/01/08 02:02:03;;;;;;;3.47;2.85;;;3.50;71.40;;;;;;5067356;28;20033;-73
2022/01/08 02:04:29;;;;;;;7.20;3.45;;;3.40;71.50;;;;;;5061962;28;20100;-73
2022/01/08 02:06:54;;;;;;;4.05;3.33;;;3.60;71.60;;;;;;5056078;28;20449;-73
2022/01/08 02:09:20;;;;;;;4.07;3.15;;;3.50;71.60;;;;;;5053830;28;20166;-73
2022/01/08 02:12:01;;;;;;;3.72;3.28;;;3.50;71.70;;;;;;5054589;28;20024;-73
2022/01/08 02:14:28;;;;;;;4.07;3.20;;;3.50;72.00;;;;;;5055486;28;20504;-73
2022/01/08 02:16:54;;;;;;;5.75;3.45;;;3.50;71.90;;;;;;5061338;28;20028;-73
2022/01/08 02:19:21;;;;;;;3.30;3.00;;;3.50;71.80;;;;;;5055611;28;20037;-73
2022/01/08 02:21:58;;;;;;;4.75;3.60;;;3.50;71.90;;;;;;5050624;28;20139;-73
2022/01/08 02:24:25;;;;;;;5.45;3.10;;;3.50;72.00;;;;;;5054716;28;20033;-73
2022/01/08 02:26:51;;;;;;;4.70;3.40;;;3.50;71.90;;;;;;5055155;28;20025;-73
2022/01/08 02:29:19;;;;;;;10.48;3.30;;;3.50;71.90;;;;;;5053428;28;20040;-73
2022/01/08 02:31:58;;;;;;;4.40;3.33;;;3.50;72.00;;;;;;5055403;28;20033;-73
2022/01/08 02:34:26;;;;;;;5.13;3.92;;;3.50;72.10;;;;;;5056575;28;20033;-73
2022/01/08 02:36:53;;;;;;;5.88;3.95;;;3.50;72.70;;;;;;5055174;28;20377;-73
2022/01/08 02:39:18;;;;;;;4.85;3.75;;;3.50;72.00;;;;;;5061421;28;20029;-73
2022/01/08 02:41:44;;;;;;;4.22;3.47;;;3.60;72.00;;;;;;5070563;28;20024;-73
2022/01/08 02:44:11;;;;;;;6.15;4.35;;;3.60;72.00;;;;;;5065013;28;20116;-73
2022/01/08 02:46:40;;;;;;;5.75;4.53;;;3.60;72.00;;;;;;5057579;28;20021;-73
2022/01/08 02:49:07;;;;;;;8.15;4.20;;;3.60;72.10;;;;;;5051255;28;20102;-73
2022/01/08 02:51:36;;;;;;;4.35;3.38;;;3.60;72.10;;;;;;5055018;28;20025;-73
2022/01/08 02:54:06;;;;;;;6.28;4.00;;;3.60;72.10;;;;;;5054768;28;20044;-73
2022/01/08 02:56:32;;;;;;;5.22;4.15;;;3.60;72.20;;;;;;5053536;28;20351;-73
2022/01/08 02:58:58;;;;;;;4.57;3.67;;;3.60;72.30;;;;;;5054758;28;20044;-73
2022/01/08 03:01:23;;;;;;;6.05;4.07;;;3.70;72.50;;;;;;5056619;28;20078;-73
2022/01/08 03:03:52;;;;;;;6.40;4.38;;;3.60;72.40;;;;;;5048668;28;20030;-73
2022/01/08 03:06:17;;;;;;;5.05;3.90;;;3.60;72.50;;;;;;5048583;28;20024;-73
2022/01/08 03:08:43;;;;;;;5.25;3.80;;;3.60;72.60;;;;;;5052860;28;20099;-73
2022/01/08 03:11:09;;;;;;;4.95;3.92;;;3.60;72.70;;;;;;5054867;28;20501;-73
2022/01/08 03:13:34;;;;;;;5.45;4.28;;;3.60;72.70;;;;;;5054266;28;20068;-73
2022/01/08 03:16:00;;;;;;;4.60;3.95;;;3.70;72.80;;;;;;5054889;28;20432;-73
2022/01/08 03:18:25;;;;;;;6.45;4.25;;;3.70;72.80;;;;;;5054315;28;20021;-73
2022/01/08 03:21:01;;;;;;;5.53;4.03;;;3.70;72.90;;;;;;5054597;28;20025;-73
2022/01/08 03:23:38;;;;;;;4.40;3.38;;;3.70;72.90;;;;;;5053694;28;20370;-73
2022/01/08 03:26:04;;;;;;;4.78;3.83;;;4.00;73.10;;;;;;5050672;28;20029;-73
2022/01/08 03:28:30;;;;;;;4.60;4.10;;;3.70;73.00;;;;;;5055089;28;20043;-73
2022/01/08 03:30:56;;;;;;;6.75;4.32;;;3.70;72.90;;;;;;5053008;28;20037;-73
2022/01/08 03:33:22;;;;;;;6.22;4.32;;;4.00;73.20;;;;;;5053938;28;20075;-73
2022/01/08 03:35:47;;;;;;;7.18;3.95;;;3.70;73.10;;;;;;5053896;28;20536;-73
2022/01/08 03:38:13;;;;;;;3.85;3.45;;;3.80;73.20;;;;;;5053883;28;20685;-73
2022/01/08 03:40:38;;;;;;;5.22;3.40;;;3.80;73.00;;;;;;5054747;28;20025;-73
2022/01/08 03:43:04;;;;;;;7.03;4.15;;;3.80;73.00;;;;;;5054389;28;20420;-73
2022/01/08 03:45:30;;;;;;;5.25;3.88;;;3.80;73.10;;;;;;5054105;28;20040;-73
2022/01/08 03:50:33;;;;;;;7.30;3.95;;;3.80;73.20;;;;;;5034286;28;20037;-73
2022/01/08 03:52:59;;;;;;;5.50;4.13;;;3.80;73.00;;;;;;5052216;28;20021;-73
2022/01/08 03:55:25;;;;;;;4.75;3.92;;;3.80;72.90;;;;;;5052563;28;20031;-73
2022/01/08 03:57:50;;;;;;;7.18;4.35;;;3.80;72.90;;;;;;5053749;28;20496;-73
2022/01/08 04:00:16;;;;;;;5.20;4.10;;;3.80;72.90;;;;;;5053496;28;20052;-73
2022/01/08 04:02:42;;;;;;;5.75;4.40;;;3.80;73.20;;;;;;5053503;28;20024;-73
2022/01/08 04:05:07;;;;;;;7.35;4.25;;;3.80;73.30;;;;;;5053576;28;20080;-73
2022/01/08 04:07:33;;;;;;;6.40;4.80;;;3.80;73.20;;;;;;5052073;28;20033;-73
2022/01/08 04:09:59;;;;;;;9.02;4.35;;;3.80;73.20;;;;;;5053778;28;20111;-73
2022/01/08 04:12:37;;;;;;;5.47;3.97;;;3.80;73.20;;;;;;5065450;28;20071;-73
2022/01/08 04:15:32;;;;;;;6.70;4.60;;;3.80;73.40;;;;;;5053772;28;20029;-74
2022/01/08 04:17:55;;;;;;;5.65;3.72;;;3.80;73.50;;;;;;5046683;28;20026;-73
2022/01/08 04:20:22;;;;;;;5.75;3.65;;;3.80;73.30;;;;;;5053663;28;20021;-73
2022/01/08 04:22:50;;;;;;;4.90;3.95;;;3.80;73.20;;;;;;5042301;28;20033;-73
2022/01/08 04:25:18;;;;;;;6.55;3.90;;;3.90;73.50;;;;;;5050989;28;20393;-74
2022/01/08 04:27:44;;;;;;;5.38;3.40;;;3.80;73.60;;;;;;5054550;28;20025;-73
2022/01/08 04:30:10;;;;;;;3.72;3.30;;;3.80;73.50;;;;;;5051264;28;20037;-74
2022/01/08 04:32:36;;;;;;;4.15;3.30;;;3.80;73.80;;;;;;5052734;28;20412;-73
2022/01/08 04:35:02;;;;;;;4.28;3.30;;;3.80;73.80;;;;;;5041994;28;20022;-73
2022/01/08 04:37:28;;;;;;;3.70;2.72;;;3.80;74.10;;;;;;5052234;28;20029;-73
2022/01/08 04:39:54;;;;;;;2.70;2.50;;;3.80;74.00;;;;;;5051606;28;20094;-73
2022/01/08 04:42:20;;;;;;;3.50;2.70;;;3.80;73.70;;;;;;5053145;28;20029;-73
2022/01/08 04:44:45;;;;;;;3.08;2.70;;;3.80;74.00;;;;;;5052978;28;20039;-73
2022/01/08 04:47:11;;;;;;;4.13;2.80;;;3.80;74.00;;;;;;5051121;28;20075;-73
2022/01/08 04:49:37;;;;;;;5.10;2.63;;;4.00;74.60;;;;;;5053050;28;20048;-73
2022/01/08 04:52:03;;;;;;;3.55;2.22;;;3.80;74.30;;;;;;5052233;28;20039;-73
2022/01/08 04:54:29;;;;;;;3.45;2.20;;;3.90;74.10;;;;;;5052754;28;20029;-73
2022/01/08 04:56:54;;;;;;;3.10;2.22;;;4.10;74.50;;;;;;5057504;28;20028;-73
2022/01/08 04:59:20;;;;;;;2.70;2.10;;;3.90;74.10;;;;;;5052796;28;20048;-73
2022/01/08 05:01:46;;;;;;;2.28;2.08;;;3.90;74.20;;;;;;5050911;28;20539;-73
2022/01/08 05:04:11;;;;;;;3.17;2.38;;;3.90;74.10;;;;;;5046122;28;20086;-73
2022/01/08 05:06:37;;;;;;;2.67;2.08;;;3.90;74.10;;;;;;5039198;28;20142;-73
2022/01/08 05:09:04;;;;;;;3.25;1.92;;;4.00;74.20;;;;;;5051830;28;20053;-73
2022/01/08 05:11:30;;;;;;;3.20;1.90;;;4.00;74.20;;;;;;5052274;28;20033;-73
2022/01/08 05:13:56;;;;;;;2.28;1.92;;;4.10;74.30;;;;;;5050522;28;20455;-74
2022/01/08 05:16:24;;;;;;;2.53;1.85;;;4.00;74.40;;;;;;5052223;28;20017;-73
2022/01/08 05:18:52;;;;;;;2.20;1.77;;;4.00;74.20;;;;;;5052385;28;20021;-73
2022/01/08 05:21:24;;;;;;;2.15;1.95;;;4.00;74.20;;;;;;5052000;28;20017;-73
2022/01/08 05:23:50;;;;;;;1.90;1.70;;;4.10;74.20;;;;;;5052705;28;20580;-73
2022/01/08 05:26:17;;;;;;;2.45;1.77;;;4.00;74.20;;;;;;5052415;28;20021;-73
2022/01/08 05:28:44;;;;;;;3.88;2.00;;;4.10;74.00;;;;;;5051483;28;20041;-73
2022/01/08 05:31:10;;;;;;;2.17;1.98;;;4.10;74.10;;;;;;5064614;28;20025;-73
2022/01/08 05:33:36;;;;;;;2.45;2.00;;;4.10;74.10;;;;;;5053450;28;20032;-73
2022/01/08 05:36:02;;;;;;;3.95;2.05;;;4.10;74.10;;;;;;5052088;28;20032;-73
2022/01/08 05:38:27;;;;;;;2.00;1.80;;;4.10;74.00;;;;;;5050417;28;20116;-73
2022/01/08 05:40:53;;;;;;;3.00;1.80;;;4.20;74.00;;;;;;5061283;28;20123;-74
2022/01/08 05:43:19;;;;;;;2.47;2.28;;;4.20;74.00;;;;;;5058521;28;20086;-74
2022/01/08 05:45:44;;;;;;;3.50;2.13;;;4.20;74.00;;;;;;5052383;28;20416;-73
2022/01/08 05:48:10;;;;;;;2.22;2.00;;;4.20;73.90;;;;;;5051700;28;20118;-73
2022/01/08 05:50:36;;;;;;;2.88;1.55;;;4.30;73.80;;;;;;5051641;28;20120;-73
2022/01/08 05:53:01;;;;;;;1.65;1.55;;;4.30;73.90;;;;;;5050962;28;20035;-73
2022/01/08 05:55:27;;;;;;;3.75;1.55;;;4.30;74.00;;;;;;5059249;28;20064;-74
2022/01/08 05:57:53;;;;;;;3.05;1.60;;;4.30;74.10;;;;;;5051803;28;20021;-74
2022/01/08 06:00:19;;;;;;;1.50;1.40;;;4.30;73.80;;;;;;5051934;28;20032;-73
2022/01/08 06:02:44;;;;;;;1.55;1.42;;;4.40;73.90;;;;;;5051440;28;20029;-73
2022/01/08 06:05:10;;;;;;;1.50;1.40;;;4.40;73.90;;;;;;5050868;28;20385;-74
2022/01/08 06:07:36;;;;;;;1.80;1.70;;;4.40;74.10;;;;;;5051739;28;20021;-73
2022/01/08 06:10:03;;;;;;;1.52;1.42;;;4.40;73.90;;;;;;5055610;28;20068;-74
2022/01/08 06:12:28;;;;;;;2.35;1.63;;;4.40;73.80;;;;;;5051470;28;20354;-74
2022/01/08 06:14:54;;;;;;;2.70;1.73;;;4.40;73.80;;;;;;5052001;28;20036;-74
2022/01/08 06:17:19;;;;;;;3.78;1.55;;;4.40;73.80;;;;;;5051811;28;20029;-74
2022/01/08 06:19:45;;;;;;;2.70;2.00;;;4.40;74.00;;;;;;5050985;28;20511;-74
2022/01/08 06:22:11;;;;;;;1.88;1.77;;;4.40;73.90;;;;;;5051377;28;20025;-74
2022/01/08 06:24:37;;;;;;;5.40;1.77;;;4.40;73.90;;;;;;5056195;28;20039;-74
2022/01/08 06:27:03;;;;;;;1.60;1.50;;;4.40;74.00;;;;;;5033685;28;20468;-73
2022/01/08 06:29:28;;;;;;;2.03;1.60;;;4.40;73.80;;;;;;5051283;28;20128;-74
2022/01/08 06:31:54;;;;;;;5.60;1.92;;;4.40;73.80;;;;;;5051760;28;20021;-73
2022/01/08 06:34:20;;;;;;;2.78;1.85;;;4.40;74.10;;;;;;5050574;28;20087;-73
2022/01/08 06:36:47;;;;;;;1.60;1.50;;;4.40;74.00;;;;;;5053099;28;20067;-74
2022/01/08 06:39:14;;;;;;;3.22;2.15;;;4.40;74.20;;;;;;5053777;28;20021;-74
2022/01/08 06:41:39;;;;;;;1.70;1.60;;;4.40;74.00;;;;;;5055322;28;20119;-74
2022/01/08 06:44:05;;;;;;;1.58;1.48;;;4.40;74.30;;;;;;5053951;28;20113;-73
2022/01/08 06:46:31;;;;;;;1.70;1.60;;;4.40;74.30;;;;;;5054100;28;20462;-73
2022/01/08 06:48:57;;;;;;;1.98;1.52;;;4.30;74.10;;;;;;5054490;28;20034;-74
2022/01/08 06:51:23;;;;;;;2.85;1.60;;;4.30;74.40;;;;;;5055539;28;20462;-74
2022/01/08 06:53:48;;;;;;;2.72;1.67;;;4.50;74.50;;;;;;5055225;28;20024;-73
2022/01/08 06:56:14;;;;;;;1.30;1.20;;;4.30;74.70;;;;;;5054933;28;20469;-74
2022/01/08 06:58:41;;;;;;;2.53;1.92;;;4.30;74.70;;;;;;5054660;28;20025;-74
2022/01/08 07:01:07;;;;;;;2.20;2.00;;;4.30;74.40;;;;;;5054097;28;20021;-74
2022/01/08 07:03:33;;;;;;;2.55;2.10;;;4.50;75.00;;;;;;5054697;28;20021;-73
2022/01/08 07:05:58;;;;;;;1.63;1.50;;;4.30;75.00;;;;;;5054960;28;20397;-73
2022/01/08 07:08:24;;;;;;;1.42;1.33;;;4.30;74.80;;;;;;5057317;28;20464;-74
2022/01/08 07:10:50;;;;;;;1.30;1.20;;;4.30;74.90;;;;;;5056326;28;20036;-74
2022/01/08 07:13:15;;;;;;;1.00;1.00;;;4.30;74.80;;;;;;5060197;28;20023;-74
2022/01/08 07:15:41;;;;;;;2.00;1.20;;;4.40;75.00;;;;;;5059646;28;20033;-74
2022/01/08 07:18:07;;;;;;;0.90;0.90;;;4.40;75.20;;;;;;5050579;28;20029;-74
2022/01/08 07:20:32;;;;;;;0.80;0.80;;;4.40;74.80;;;;;;5054681;28;20037;-74
2022/01/08 07:22:59;;;;;;;1.15;0.75;;;4.50;74.60;;;;;;5053592;28;20052;-75
2022/01/08 07:25:25;;;;;;;1.25;0.80;;;4.40;74.20;;;;;;5054751;28;20025;-75
2022/01/08 07:27:51;;;;;;;0.60;0.60;;;4.40;74.20;;;;;;5040116;28;20020;-73
2022/01/08 07:30:17;;;;;;;0.70;0.70;;;4.40;74.00;;;;;;5065100;28;20526;-73
2022/01/08 07:32:48;;;;;;;0.77;0.65;;;4.40;73.80;;;;;;5052968;28;20116;-73
2022/01/08 07:35:16;;;;;;;0.60;0.60;;;4.40;73.80;;;;;;5054060;28;20037;-72
2022/01/08 07:37:42;;;;;;;0.80;0.80;;;4.40;73.70;;;;;;5053440;28;20389;-73
2022/01/08 07:40:10;;;;;;;0.80;0.80;;;4.30;73.70;;;;;;5053979;28;20021;-74
2022/01/08 07:42:36;;;;;;;0.80;0.80;;;4.30;73.70;;;;;;5053928;28;20067;-73
2022/01/08 07:45:02;;;;;;;0.80;0.80;;;4.30;73.50;;;;;;5052967;28;20045;-73
2022/01/08 07:47:28;;;;;;;0.80;0.80;;;4.30;74.20;;;;;;5053967;28;20039;-75
2022/01/08 07:49:53;;;;;;;1.35;0.95;;;4.20;73.40;;;;;;5053880;28;20123;-75
2022/01/08 07:52:19;;;;;;;0.65;0.65;;;4.30;73.50;;;;;;5052645;28;20416;-73
2022/01/08 07:54:45;;;;;;;1.02;1.00;;;4.20;73.40;;;;;;5053740;28;20121;-74
2022/01/08 07:57:10;;;;;;;1.20;1.00;;;4.20;73.40;;;;;;5052116;28;20036;-74
2022/01/08 07:59:36;;;;;;;1.10;1.00;;;4.20;73.50;;;;;;5052563;28;20504;-74
2022/01/08 08:02:02;;;;;;;4.40;2.30;;;4.20;73.40;;;;;;5052050;28;20036;-74
2022/01/08 08:04:27;;;;;;;3.88;1.83;;;4.10;73.10;;;;;;5042953;28;20086;-74
2022/01/08 08:06:53;;;;;;;1.67;1.42;;;4.10;73.20;;;;;;5032721;28;20574;-74
2022/01/08 08:09:19;;;;;;;1.65;1.30;;;4.10;73.20;;;;;;5050650;28;20056;-73
2022/01/08 08:11:44;;;;;;;1.10;1.00;;;4.10;73.30;;;;;;5053891;28;20457;-74
2022/01/08 08:14:11;;;;;;;1.13;0.90;;;4.20;73.40;;;;;;5052416;28;20075;-71
2022/01/08 08:16:37;;;;;;;0.90;0.90;;;4.00;73.20;;;;;;5070752;28;20389;-72
2022/01/08 08:19:03;;;;;;;1.00;1.00;;;4.00;73.20;;;;;;5048375;28;20037;-71
2022/01/08 08:21:29;;;;;;;1.00;1.00;;;4.00;73.20;;;;;;5052031;28;20040;-73
2022/01/08 08:23:54;;;;;;;1.27;1.10;;;3.90;73.20;;;;;;5053379;28;20025;-72
2022/01/08 08:26:20;;;;;;;1.05;1.05;;;4.20;73.50;;;;;;5053257;28;20086;-72
2022/01/08 08:28:46;;;;;;;0.90;0.90;;;3.90;73.40;;;;;;5052369;28;20489;-71
2022/01/08 08:31:12;;;;;;;1.13;1.00;;;3.90;73.30;;;;;;5053038;28;20029;-72
2022/01/08 08:33:39;;;;;;;0.90;0.90;;;3.90;73.30;;;;;;5052588;28;20032;-72
2022/01/08 08:36:05;;;;;;;3.42;2.25;;;3.90;73.50;;;;;;5053035;28;20057;-71
2022/01/08 08:38:31;;;;;;;1.88;1.35;;;3.90;73.60;;;;;;5061026;28;20108;-71
2022/01/08 08:40:56;;;;;;;1.80;1.70;;;4.00;73.60;;;;;;5053099;28;20532;-72
2022/01/08 08:43:23;;;;;;;1.30;1.20;;;4.00;73.50;;;;;;5052901;28;20072;-71
2022/01/08 08:45:49;;;;;;;2.13;1.50;;;4.00;74.10;;;;;;5052913;28;20067;-71
2022/01/08 08:48:15;;;;;;;1.00;1.00;;;4.00;73.30;;;;;;5050893;28;20155;-72
2022/01/08 08:50:42;;;;;;;2.47;2.10;;;4.00;73.40;;;;;;5052842;28;20021;-72
2022/01/08 08:53:08;;;;;;;2.38;1.20;;;4.00;73.30;;;;;;5052955;28;20025;-74
2022/01/08 08:55:33;;;;;;;2.25;1.00;;;4.10;72.90;;;;;;5053276;28;20108;-73
2022/01/08 08:57:59;;;;;;;1.40;1.00;;;4.10;72.70;;;;;;5057314;28;20473;-72
2022/01/08 09:00:25;;;;;;;2.83;1.00;;;4.10;72.10;;;;;;5051752;28;21403;-74
2022/01/08 09:02:59;;;;;;;1.10;0.98;;;4.10;72.10;;;;;;5054093;28;20367;-73
2022/01/08 09:05:28;;;;;;;1.75;0.95;;;4.10;72.10;;;;;;5032599;28;20033;-72
2022/01/08 09:07:56;;;;;;;1.80;1.20;;;4.10;72.20;;;;;;5032751;28;20120;-73
2022/01/08 09:10:25;;;;;;;2.50;1.17;;;4.10;71.60;;;;;;5052600;28;20091;-72
2022/01/08 09:12:52;;;;;;;2.35;1.00;;;4.20;71.80;;;;;;5051683;28;20059;-71
2022/01/08 09:15:23;;;;;;;1.42;1.00;;;4.20;72.10;;;;;;5051086;28;20036;-72
2022/01/08 09:17:50;;;;;;;2.35;1.05;;;4.20;72.20;;;;;;5046210;28;20166;-71
2022/01/08 09:20:16;;;;;;;3.42;2.05;;;4.30;72.30;;;;;;5044341;28;20039;-71
2022/01/08 09:22:41;;;;;;;1.63;1.20;;;4.40;72.10;;;;;;5049317;28;20074;-71
2022/01/08 09:25:09;;;;;;;1.98;1.10;;;4.40;72.10;;;;;;5047892;28;20120;-71
2022/01/08 09:27:35;;;;;;;3.40;1.20;;;4.50;72.10;;;;;;5034940;28;20033;-71
2022/01/08 09:30:01;;;;;;;2.10;1.20;;;4.50;71.90;;;;;;5039520;28;20056;-71
2022/01/08 09:32:27;;;;;;;1.98;1.40;;;4.50;72.20;;;;;;5029775;28;20033;-71
2022/01/08 09:34:53;;;;;;;1.73;1.40;;;4.50;73.20;;;;;;5041014;28;20025;-71
2022/01/08 09:37:19;;;;;;;1.00;1.00;;;4.70;72.90;;;;;;5040118;28;20028;-72
2022/01/08 09:39:45;;;;;;;7.55;4.00;;;4.60;72.80;;;;;;5042879;28;20418;-71
2022/01/08 09:42:11;;;;;;;4.65;2.88;;;4.70;72.90;;;;;;5046407;28;20464;-71
2022/01/08 09:44:39;;;;;;;2.35;1.90;;;4.70;72.90;;;;;;5056909;28;20108;-72
2022/01/08 09:47:05;;;;;;;1.30;1.20;;;4.90;72.90;;;;;;5056342;28;20033;-72
2022/01/08 09:49:32;;;;;;;1.40;1.20;;;4.80;72.60;;;;;;5053284;28;20045;-72
2022/01/08 09:51:58;;;;;;;1.48;1.30;;;4.80;72.40;;;;;;5048037;28;20099;-71
2022/01/08 09:54:24;;;;;;;5.70;3.67;;;4.90;72.10;;;;;;5053462;28;20131;-71
2022/01/08 09:56:50;;;;;;;4.22;2.47;;;4.90;72.30;;;;;;5045308;28;20112;-71
2022/01/08 09:59:16;;;;;;;20.35;13.07;;;4.90;72.30;;;;;;5032413;28;20108;-71
2022/01/08 10:01:42;;;;;;;3.95;2.50;;;5.00;72.50;;;;;;5043414;28;20404;-71
2022/01/08 10:04:08;;;;;;;6.40;2.85;;;5.10;71.60;;;;;;5050179;28;20063;-71
2022/01/08 10:06:36;;;;;;;10.52;7.03;;;5.20;72.30;;;;;;5052899;28;20417;-71
2022/01/08 10:09:04;;;;;;;2.53;1.67;;;5.30;72.40;;;;;;5051449;28;20132;-71
2022/01/08 10:11:30;;;;;;;5.78;2.20;;;5.50;72.00;;;;;;5073062;28;20025;-71
2022/01/08 10:14:05;;;;;;;2.88;1.60;;;5.70;71.60;;;;;;5058249;28;20063;-71
2022/01/08 10:19:24;;;;;;;4.80;2.20;;;5.80;70.10;;;;;;5057780;28;19951;-71
2022/01/08 10:21:51;;;;;;;3.97;1.73;;;5.80;68.20;;;;;;5056106;28;20412;-72
2022/01/08 10:24:22;;;;;;;3.15;1.70;;;5.70;69.10;;;;;;5054703;28;20393;-70
2022/01/08 10:26:51;;;;;;;3.25;1.40;;;5.70;68.90;;;;;;5054552;28;20539;-72
2022/01/08 10:29:19;;;;;;;3.13;2.10;;;5.60;68.90;;;;;;5055297;28;20100;-70
2022/01/08 10:31:50;;;;;;;2.42;1.55;;;5.50;68.40;;;;;;5057343;28;20021;-70
2022/01/08 10:34:22;;;;;;;5.05;1.80;;;5.40;68.50;;;;;;5051433;28;20423;-70
2022/01/08 10:36:56;;;;;;;3.22;1.58;;;5.40;68.50;;;;;;5067917;28;20112;-69
2022/01/08 10:39:24;;;;;;;4.82;1.80;;;5.50;69.60;;;;;;5056035;28;20477;-70
2022/01/08 10:41:53;;;;;;;6.32;2.88;;;5.50;69.00;;;;;;5049903;28;20022;-69
2022/01/08 10:44:47;;;;;;;3.42;1.92;;;5.50;69.20;;;;;;5055012;28;20071;-69
2022/01/08 10:47:17;;;;;;;5.32;1.67;;;5.60;69.00;;;;;;5061739;28;20091;-70
2022/01/08 10:50:00;;;;;;;4.20;2.08;;;5.60;69.10;;;;;;5044091;28;20075;-70
2022/01/08 10:52:26;;;;;;;1.52;1.35;;;5.70;68.90;;;;;;5047321;28;20041;-70
2022/01/08 10:54:59;;;;;;;4.55;1.70;;;5.70;68.80;;;;;;5043715;28;20025;-70
2022/01/08 10:57:34;;;;;;;3.08;1.42;;;5.70;68.20;;;;;;5050131;28;20021;-69
2022/01/08 11:00:00;;;;;;;;;;;5.70;68.40;;;;;;5044145;28;20038;-69
2022/01/08 11:02:28;;;;;;;3.10;1.33;;;5.70;67.70;;;;;;5050055;28;19909;-69
2022/01/08 11:04:54;;;;;;;1.70;1.15;;;5.70;67.70;;;;;;5049758;28;20025;-69
2022/01/08 11:07:27;;;;;;;3.83;1.58;;;5.80;68.60;;;;;;5041737;28;20527;-69
2022/01/08 11:09:55;;;;;;;1.90;1.30;;;5.90;68.70;;;;;;5034940;28;20045;-69
2022/01/08 11:12:27;;;;;;;2.72;1.55;;;5.90;68.50;;;;;;5046739;28;20078;-69
2022/01/08 11:17:34;;;;;;;1.67;1.20;;;6.10;67.30;;;;;;5045571;28;20017;-70
2022/01/08 11:20:30;;;;;;;2.47;1.60;;;6.20;66.90;;;;;;5036780;28;20029;-69
2022/01/08 11:23:01;;;;;;;2.40;1.35;;;6.20;66.60;;;;;;5046821;28;20025;-69
2022/01/08 11:25:33;;;;;;;4.18;1.40;;;6.20;66.40;;;;;;5057874;28;20426;-70
2022/01/08 11:28:08;;;;;;;5.82;1.30;;;6.20;64.60;;;;;;5046830;28;20087;-69
2022/01/08 11:30:38;;;;;;;3.22;1.30;;;6.20;65.70;;;;;;5046676;28;20041;-69
2022/01/08 11:33:17;;;;;;;3.13;1.52;;;6.20;66.00;;;;;;5050477;28;20528;-70
2022/01/08 11:35:44;;;;;;;1.98;1.00;;;6.20;66.00;;;;;;5048646;28;20481;-69
2022/01/08 11:38:12;;;;;;;2.38;1.10;;;6.10;66.60;;;;;;5035244;28;20576;-70
2022/01/08 11:40:41;;;;;;;2.92;1.35;;;6.10;65.90;;;;;;5063624;28;20076;-69
2022/01/08 11:43:09;;;;;;;3.85;1.65;;;6.20;65.70;;;;;;5061551;28;20090;-69
2022/01/08 11:45:39;;;;;;;4.82;2.25;;;6.20;65.90;;;;;;5053906;28;20385;-69
2022/01/08 11:48:07;;;;;;;3.08;1.67;;;6.20;66.00;;;;;;5051762;28;20021;-70
2022/01/08 11:50:34;;;;;;;9.35;2.00;;;6.30;64.80;;;;;;5052500;28;20037;-69
2022/01/08 11:53:13;;;;;;;3.78;1.52;;;6.30;64.70;;;;;;5053977;28;20025;-70
2022/01/08 11:55:39;;;;;;;2.92;1.52;;;6.40;64.10;;;;;;5053908;28;20604;-70
2022/01/08 11:58:26;;;;;;;4.60;1.65;;;6.40;63.10;;;;;;5053895;28;20104;-70
2022/01/08 12:01:00;;;;;;;2.20;1.38;;;6.40;63.00;;;;;;5055747;28;20025;-70
2022/01/08 12:03:31;;;;;;;3.75;1.30;;;6.50;63.20;;;;;;5052865;28;20390;-70
2022/01/08 12:06:17;;;;;;;1.77;1.10;;;6.50;62.90;;;;;;5053479;28;20039;-70
2022/01/08 12:11:46;;;;;;;1.95;1.13;;;6.60;62.20;;;;;;5033980;28;20029;-70
2022/01/08 12:14:17;;;;;;;2.95;1.10;;;6.70;63.70;;;;;;5043047;28;20135;-70
2022/01/08 12:16:44;;;;;;;6.70;1.50;;;6.80;63.90;;;;;;5044304;28;20025;-70
2022/01/08 12:19:36;;;;;;;5.13;1.50;;;6.90;63.90;;;;;;5052030;28;20100;-72
2022/01/08 12:22:22;;;;;;;4.15;1.15;;;7.00;62.50;;;;;;5053141;28;20102;-70
2022/01/08 12:24:53;;;;;;;3.13;1.20;;;7.10;60.10;;;;;;5053369;28;20036;-71
2022/01/08 12:27:37;;;;;;;5.95;1.60;;;7.10;61.80;;;;;;5051234;28;20078;-71
2022/01/08 12:30:23;;;;;;;3.20;1.20;;;7.10;61.90;;;;;;5051637;28;20524;-71
2022/01/08 12:33:12;;;;;;;4.15;2.05;;;7.10;62.30;;;;;;5043700;28;20033;-71
2022/01/08 12:35:38;;;;;;;2.50;1.45;;;7.10;62.50;;;;;;5046918;28;20566;-72
2022/01/08 12:38:16;;;;;;;2.17;1.42;;;7.20;60.40;;;;;;5050193;28;20021;-71
2022/01/08 12:40:50;;;;;;;3.85;1.55;;;7.30;61.80;;;;;;5032438;28;20044;-71
2022/01/08 12:43:17;;;;;;;2.85;1.30;;;7.30;62.10;;;;;;5039222;28;20379;-71
2022/01/08 12:45:43;;;;;;;4.68;1.25;;;7.40;61.50;;;;;;5047086;28;20030;-71
2022/01/08 12:48:09;;;;;;;2.90;0.95;;;7.40;61.90;;;;;;5050148;28;20021;-71
2022/01/08 12:50:56;;;;;;;2.00;1.02;;;7.40;61.70;;;;;;5036990;28;20064;-72
2022/01/08 12:53:26;;;;;;;2.05;1.20;;;7.40;60.50;;;;;;5038792;28;20032;-72
2022/01/08 12:55:57;;;;;;;10.73;1.35;;;7.50;60.80;;;;;;5037660;28;20041;-72
2022/01/08 12:58:34;;;;;;;5.97;1.35;;;7.50;60.60;;;;;;5044437;28;20017;-72
2022/01/08 13:01:01;;;;;;;5.28;1.30;;;7.50;60.30;;;;;;5039607;28;20511;-72
2022/01/08 13:03:31;;;;;;;3.45;1.25;;;7.50;60.80;;;;;;5042140;28;20083;-73
2022/01/08 13:06:03;;;;;;;6.65;2.95;;;7.50;60.60;;;;;;5038589;28;20025;-72
2022/01/08 13:08:31;;;;;;;6.63;1.60;;;7.50;59.70;;;;;;5052459;28;20031;-72
2022/01/08 13:11:00;;;;;;;5.15;1.55;;;7.50;59.80;;;;;;5055163;28;20559;-72
2022/01/08 13:13:27;;;;;;;5.40;2.30;;;7.40;59.30;;;;;;5052365;28;20048;-73
2022/01/08 13:15:54;;;;;;;3.63;1.42;;;7.30;59.70;;;;;;5037322;28;20437;-72
2022/01/08 13:18:24;;;;;;;3.40;1.88;;;7.20;59.30;;;;;;5065550;28;20111;-73
2022/01/08 13:21:04;;;;;;;4.13;1.65;;;7.20;59.80;;;;;;5072579;28;20040;-72
2022/01/08 13:23:30;;;;;;;3.35;1.50;;;7.10;60.40;;;;;;5039599;28;20029;-71
2022/01/08 13:25:57;;;;;;;4.30;1.65;;;7.10;60.80;;;;;;5052278;28;20060;-72
2022/01/08 13:28:24;;;;;;;4.03;2.03;;;7.20;60.90;;;;;;5043486;28;20041;-71